Vjaz'Ma, Russia
Current Conditions -  °F | °C
As of 6:00 PM on Tuesday 21 Oct 2014 (Local Time) from UUBW Reporting Station
Overcast Overcast  
Wind Chill: 24°   Ceiling: 1400
Heat Index: 34°   Visibility: 6mi
Dew Point: 30°   Wind: 13mph
Humidity: 87%   Direction: 340°NNW
Pressure: 29.47"   Gusts: NA
Location:  55.17°N, 34.4°E
Report Text: UUBW 211500Z 34006MPS 9999 OVC014 01/M01 Q0998 NOSIG RMK SC050
Loading
Personal Weather Stations






























Interactive Weather Map
Tropical Storm Tracking
New forecast layout! Learn more

10-Day Weather Forecast

Advertisements
Track Severe Weather on mobile